sensor_id;sensor_type;location;lat;lon;timestamp;pressure;altitude;pressure_sealevel;temperature;humidity
74905;BME280;63465;50.862;6.220;2024-01-15T00:01:55;98726.69;;;-0.23;100.00
74905;BME280;63465;50.862;6.220;2024-01-15T00:04:20;98721.34;;;-0.19;100.00
74905;BME280;63465;50.862;6.220;2024-01-15T00:06:45;98742.13;;;-0.03;100.00
74905;BME280;63465;50.862;6.220;2024-01-15T00:09:10;98738.41;;;0.04;100.00
74905;BME280;63465;50.862;6.220;2024-01-15T00:11:36;98737.44;;;-0.14;100.00
74905;BME280;63465;50.862;6.220;2024-01-15T00:14:01;98739.50;;;-0.02;100.00
74905;BME280;63465;50.862;6.220;2024-01-15T00:16:26;98729.25;;;-0.03;100.00
74905;BME280;63465;50.862;6.220;2024-01-15T00:18:52;98735.72;;;-0.13;100.00
74905;BME280;63465;50.862;6.220;2024-01-15T00:21:17;98733.47;;;-0.21;100.00
74905;BME280;63465;50.862;6.220;2024-01-15T00:23:43;98735.19;;;-0.21;100.00
74905;BME280;63465;50.862;6.220;2024-01-15T00:26:11;98724.97;;;-0.23;100.00
74905;BME280;63465;50.862;6.220;2024-01-15T00:28:37;98723.34;;;-0.25;100.00
74905;BME280;63465;50.862;6.220;2024-01-15T00:31:04;98705.47;;;-0.28;100.00
74905;BME280;63465;50.862;6.220;2024-01-15T00:33:29;98713.06;;;-0.25;100.00
74905;BME280;63465;50.862;6.220;2024-01-15T00:35:54;98712.16;;;-0.24;100.00
74905;BME280;63465;50.862;6.220;2024-01-15T00:38:20;98706.16;;;-0.25;100.00
74905;BME280;63465;50.862;6.220;2024-01-15T00:40:45;98696.63;;;-0.23;100.00
74905;BME280;63465;50.862;6.220;2024-01-15T00:43:10;98701.97;;;-0.27;100.00
74905;BME280;63465;50.862;6.220;2024-01-15T00:45:36;98697.19;;;-0.16;100.00
74905;BME280;63465;50.862;6.220;2024-01-15T00:48:01;98696.50;;;0.01;100.00
74905;BME280;63465;50.862;6.220;2024-01-15T00:50:26;98695.69;;;-0.02;100.00
74905;BME280;63465;50.862;6.220;2024-01-15T00:52:52;98691.84;;;-0.12;100.00
74905;BME280;63465;50.862;6.220;2024-01-15T00:55:17;98677.44;;;-0.16;100.00
74905;BME280;63465;50.862;6.220;2024-01-15T00:57:42;98685.72;;;-0.09;100.00
74905;BME280;63465;50.862;6.220;2024-01-15T01:00:08;98688.78;;;-0.01;100.00
74905;BME280;63465;50.862;6.220;2024-01-15T01:02:34;98689.06;;;-0.07;100.00
74905;BME280;63465;50.862;6.220;2024-01-15T01:04:59;98679.88;;;-0.13;100.00
74905;BME280;63465;50.862;6.220;2024-01-15T01:07:24;98699.91;;;0.01;100.00
74905;BME280;63465;50.862;6.220;2024-01-15T01:09:50;98695.41;;;-0.14;100.00
74905;BME280;63465;50.862;6.220;2024-01-15T01:12:16;98694.22;;;-0.07;100.00
74905;BME280;63465;50.862;6.220;2024-01-15T01:14:41;98694.09;;;-0.04;100.00
74905;BME280;63465;50.862;6.220;2024-01-15T01:17:07;98694.16;;;-0.06;100.00
74905;BME280;63465;50.862;6.220;2024-01-15T01:19:32;98698.25;;;-0.20;100.00
74905;BME280;63465;50.862;6.220;2024-01-15T01:21:57;98689.66;;;-0.21;100.00
74905;BME280;63465;50.862;6.220;2024-01-15T01:24:22;98693.44;;;-0.09;100.00
74905;BME280;63465;50.862;6.220;2024-01-15T01:26:48;98692.25;;;-0.21;100.00
74905;BME280;63465;50.862;6.220;2024-01-15T01:29:14;98686.59;;;-0.29;100.00
74905;BME280;63465;50.862;6.220;2024-01-15T01:31:46;98689.00;;;-0.45;100.00
74905;BME280;63465;50.862;6.220;2024-01-15T01:34:14;98688.84;;;-0.42;100.00
74905;BME280;63465;50.862;6.220;2024-01-15T01:36:39;98682.34;;;-0.30;100.00
74905;BME280;63465;50.862;6.220;2024-01-15T01:39:05;98684.19;;;-0.13;100.00
74905;BME280;63465;50.862;6.220;2024-01-15T01:41:30;98680.25;;;0.91;100.00
74905;BME280;63465;50.862;6.220;2024-01-15T01:43:56;98691.69;;;0.30;100.00
74905;BME280;63465;50.862;6.220;2024-01-15T01:46:22;98693.66;;;0.25;100.00
74905;BME280;63465;50.862;6.220;2024-01-15T01:48:48;98695.53;;;0.41;100.00
74905;BME280;63465;50.862;6.220;2024-01-15T01:51:14;98701.50;;;0.60;100.00
74905;BME280;63465;50.862;6.220;2024-01-15T01:53:40;98689.59;;;0.57;100.00
74905;BME280;63465;50.862;6.220;2024-01-15T01:56:05;98701.81;;;0.35;100.00
74905;BME280;63465;50.862;6.220;2024-01-15T01:58:32;98703.28;;;0.41;100.00
74905;BME280;63465;50.862;6.220;2024-01-15T02:00:58;98702.34;;;0.60;100.00
74905;BME280;63465;50.862;6.220;2024-01-15T02:03:25;98704.84;;;0.62;100.00
74905;BME280;63465;50.862;6.220;2024-01-15T02:05:52;98713.16;;;0.69;100.00
74905;BME280;63465;50.862;6.220;2024-01-15T02:08:18;98710.44;;;0.34;100.00
74905;BME280;63465;50.862;6.220;2024-01-15T02:10:43;98714.47;;;0.21;100.00
74905;BME280;63465;50.862;6.220;2024-01-15T02:13:08;98711.53;;;0.10;100.00
74905;BME280;63465;50.862;6.220;2024-01-15T02:15:34;98712.13;;;0.35;100.00
74905;BME280;63465;50.862;6.220;2024-01-15T02:18:01;98705.22;;;0.36;100.00
74905;BME280;63465;50.862;6.220;2024-01-15T02:20:26;98697.41;;;0.37;100.00
74905;BME280;63465;50.862;6.220;2024-01-15T02:22:52;98695.53;;;0.41;100.00
74905;BME280;63465;50.862;6.220;2024-01-15T02:25:18;98698.53;;;0.13;100.00
74905;BME280;63465;50.862;6.220;2024-01-15T02:27:44;98686.19;;;0.19;100.00
74905;BME280;63465;50.862;6.220;2024-01-15T02:30:11;98683.34;;;0.25;100.00
74905;BME280;63465;50.862;6.220;2024-01-15T02:32:37;98687.78;;;0.22;100.00
74905;BME280;63465;50.862;6.220;2024-01-15T02:35:03;98682.78;;;0.38;100.00
74905;BME280;63465;50.862;6.220;2024-01-15T02:37:28;98685.28;;;0.20;100.00
74905;BME280;63465;50.862;6.220;2024-01-15T02:39:53;98676.31;;;0.10;100.00
74905;BME280;63465;50.862;6.220;2024-01-15T02:42:19;98667.09;;;0.05;100.00
74905;BME280;63465;50.862;6.220;2024-01-15T02:44:44;98675.19;;;0.16;100.00
74905;BME280;63465;50.862;6.220;2024-01-15T02:47:09;98681.88;;;0.39;100.00
74905;BME280;63465;50.862;6.220;2024-01-15T02:49:34;98684.09;;;0.46;100.00
74905;BME280;63465;50.862;6.220;2024-01-15T02:52:00;98686.34;;;0.35;100.00
74905;BME280;63465;50.862;6.220;2024-01-15T02:54:25;98680.06;;;0.41;100.00
74905;BME280;63465;50.862;6.220;2024-01-15T02:56:50;98679.22;;;0.40;100.00
74905;BME280;63465;50.862;6.220;2024-01-15T02:59:16;98679.56;;;0.51;100.00
74905;BME280;63465;50.862;6.220;2024-01-15T03:01:41;98686.25;;;0.37;100.00
74905;BME280;63465;50.862;6.220;2024-01-15T03:04:06;98679.41;;;0.54;100.00
74905;BME280;63465;50.862;6.220;2024-01-15T03:06:31;98685.69;;;0.49;100.00
74905;BME280;63465;50.862;6.220;2024-01-15T03:08:57;98686.25;;;0.55;100.00
74905;BME280;63465;50.862;6.220;2024-01-15T03:11:23;98675.84;;;0.57;100.00
74905;BME280;63465;50.862;6.220;2024-01-15T03:13:48;98670.28;;;0.66;100.00
74905;BME280;63465;50.862;6.220;2024-01-15T03:16:14;98668.81;;;0.60;100.00
74905;BME280;63465;50.862;6.220;2024-01-15T03:18:39;98668.75;;;0.43;100.00
74905;BME280;63465;50.862;6.220;2024-01-15T03:21:05;98667.22;;;0.58;100.00
74905;BME280;63465;50.862;6.220;2024-01-15T03:23:30;98664.22;;;0.48;100.00
74905;BME280;63465;50.862;6.220;2024-01-15T03:25:56;98669.06;;;0.37;100.00
74905;BME280;63465;50.862;6.220;2024-01-15T03:28:21;98669.59;;;0.44;100.00
74905;BME280;63465;50.862;6.220;2024-01-15T03:30:46;98674.06;;;0.40;100.00
74905;BME280;63465;50.862;6.220;2024-01-15T03:33:11;98669.19;;;0.34;100.00
74905;BME280;63465;50.862;6.220;2024-01-15T03:35:37;98665.16;;;0.28;100.00
74905;BME280;63465;50.862;6.220;2024-01-15T03:38:02;98663.19;;;0.34;100.00
74905;BME280;63465;50.862;6.220;2024-01-15T03:40:27;98665.63;;;0.37;100.00
74905;BME280;63465;50.862;6.220;2024-01-15T03:42:53;98665.63;;;0.37;100.00
74905;BME280;63465;50.862;6.220;2024-01-15T03:45:19;98661.25;;;0.39;100.00
74905;BME280;63465;50.862;6.220;2024-01-15T03:47:44;98657.19;;;0.52;100.00
74905;BME280;63465;50.862;6.220;2024-01-15T03:50:09;98656.78;;;0.42;100.00
74905;BME280;63465;50.862;6.220;2024-01-15T03:52:35;98653.44;;;0.40;100.00
74905;BME280;63465;50.862;6.220;2024-01-15T03:55:00;98652.97;;;0.68;100.00
74905;BME280;63465;50.862;6.220;2024-01-15T03:57:25;98657.63;;;0.96;100.00
74905;BME280;63465;50.862;6.220;2024-01-15T03:59:51;98651.69;;;0.77;100.00
74905;BME280;63465;50.862;6.220;2024-01-15T04:02:16;98650.16;;;0.73;100.00
74905;BME280;63465;50.862;6.220;2024-01-15T04:04:42;98654.59;;;0.88;100.00
74905;BME280;63465;50.862;6.220;2024-01-15T04:07:09;98647.53;;;0.74;100.00
74905;BME280;63465;50.862;6.220;2024-01-15T04:09:34;98650.63;;;0.63;100.00
74905;BME280;63465;50.862;6.220;2024-01-15T04:11:59;98644.75;;;0.60;100.00
74905;BME280;63465;50.862;6.220;2024-01-15T04:14:25;98642.53;;;0.52;100.00
74905;BME280;63465;50.862;6.220;2024-01-15T04:16:50;98633.94;;;0.71;100.00
74905;BME280;63465;50.862;6.220;2024-01-15T04:19:15;98639.53;;;0.61;100.00
74905;BME280;63465;50.862;6.220;2024-01-15T04:21:40;98644.50;;;0.83;100.00
74905;BME280;63465;50.862;6.220;2024-01-15T04:24:06;98628.31;;;0.80;100.00
74905;BME280;63465;50.862;6.220;2024-01-15T04:26:32;98633.00;;;0.54;100.00
74905;BME280;63465;50.862;6.220;2024-01-15T04:28:57;98629.75;;;0.68;100.00
74905;BME280;63465;50.862;6.220;2024-01-15T04:31:24;98630.91;;;0.80;100.00
74905;BME280;63465;50.862;6.220;2024-01-15T04:33:50;98622.09;;;0.67;100.00
74905;BME280;63465;50.862;6.220;2024-01-15T04:36:15;98622.06;;;0.49;100.00
74905;BME280;63465;50.862;6.220;2024-01-15T04:38:41;98627.06;;;0.52;100.00
74905;BME280;63465;50.862;6.220;2024-01-15T04:41:06;98619.28;;;0.35;100.00
74905;BME280;63465;50.862;6.220;2024-01-15T04:43:34;98616.13;;;0.47;100.00
74905;BME280;63465;50.862;6.220;2024-01-15T04:45:59;98618.25;;;0.39;100.00
74905;BME280;63465;50.862;6.220;2024-01-15T04:48:25;98628.31;;;0.62;100.00
74905;BME280;63465;50.862;6.220;2024-01-15T04:50:50;98623.50;;;0.55;100.00
74905;BME280;63465;50.862;6.220;2024-01-15T04:53:16;98621.94;;;0.70;100.00
74905;BME280;63465;50.862;6.220;2024-01-15T04:55:41;98607.19;;;0.54;100.00
74905;BME280;63465;50.862;6.220;2024-01-15T04:58:06;98610.69;;;0.53;100.00
74905;BME280;63465;50.862;6.220;2024-01-15T05:00:31;98607.06;;;0.57;100.00
74905;BME280;63465;50.862;6.220;2024-01-15T05:02:57;98609.94;;;0.69;100.00
74905;BME280;63465;50.862;6.220;2024-01-15T05:05:22;98601.22;;;0.71;100.00
74905;BME280;63465;50.862;6.220;2024-01-15T05:07:47;98605.69;;;0.68;100.00
74905;BME280;63465;50.862;6.220;2024-01-15T05:10:13;98591.44;;;0.78;100.00
74905;BME280;63465;50.862;6.220;2024-01-15T05:12:38;98609.06;;;0.87;100.00
74905;BME280;63465;50.862;6.220;2024-01-15T05:15:03;98599.34;;;0.75;100.00
74905;BME280;63465;50.862;6.220;2024-01-15T05:17:29;98608.97;;;0.88;100.00
74905;BME280;63465;50.862;6.220;2024-01-15T05:19:54;98609.44;;;0.96;100.00
74905;BME280;63465;50.862;6.220;2024-01-15T05:22:19;98600.72;;;0.99;100.00
74905;BME280;63465;50.862;6.220;2024-01-15T05:24:46;98595.09;;;0.91;100.00
74905;BME280;63465;50.862;6.220;2024-01-15T05:27:11;98596.38;;;0.82;100.00
74905;BME280;63465;50.862;6.220;2024-01-15T05:29:36;98587.03;;;0.97;100.00
74905;BME280;63465;50.862;6.220;2024-01-15T05:32:02;98578.69;;;0.92;100.00
74905;BME280;63465;50.862;6.220;2024-01-15T05:34:27;98595.69;;;0.96;100.00
74905;BME280;63465;50.862;6.220;2024-01-15T05:36:53;98581.88;;;1.14;100.00
74905;BME280;63465;50.862;6.220;2024-01-15T05:39:18;98592.66;;;1.05;100.00
74905;BME280;63465;50.862;6.220;2024-01-15T05:41:43;98579.28;;;1.14;100.00
74905;BME280;63465;50.862;6.220;2024-01-15T05:44:09;98584.97;;;1.21;100.00
74905;BME280;63465;50.862;6.220;2024-01-15T05:46:35;98596.00;;;1.07;100.00
74905;BME280;63465;50.862;6.220;2024-01-15T05:49:00;98584.06;;;1.05;100.00
74905;BME280;63465;50.862;6.220;2024-01-15T05:51:25;98586.59;;;1.06;100.00
74905;BME280;63465;50.862;6.220;2024-01-15T05:53:50;98577.84;;;0.91;100.00
74905;BME280;63465;50.862;6.220;2024-01-15T05:56:16;98584.69;;;0.92;100.00
74905;BME280;63465;50.862;6.220;2024-01-15T05:58:41;98588.72;;;0.98;100.00
74905;BME280;63465;50.862;6.220;2024-01-15T06:01:06;98589.31;;;1.03;100.00
74905;BME280;63465;50.862;6.220;2024-01-15T06:03:31;98594.09;;;1.11;100.00
74905;BME280;63465;50.862;6.220;2024-01-15T06:05:57;98590.06;;;1.22;100.00
74905;BME280;63465;50.862;6.220;2024-01-15T06:08:22;98582.41;;;1.04;100.00
74905;BME280;63465;50.862;6.220;2024-01-15T06:10:47;98583.25;;;1.04;100.00
74905;BME280;63465;50.862;6.220;2024-01-15T06:13:13;98582.03;;;0.94;100.00
74905;BME280;63465;50.862;6.220;2024-01-15T06:15:38;98573.44;;;1.11;100.00
74905;BME280;63465;50.862;6.220;2024-01-15T06:18:04;98563.78;;;1.14;100.00
74905;BME280;63465;50.862;6.220;2024-01-15T06:20:29;98565.94;;;0.89;100.00
74905;BME280;63465;50.862;6.220;2024-01-15T06:22:55;98555.16;;;0.98;100.00
74905;BME280;63465;50.862;6.220;2024-01-15T06:25:20;98552.81;;;0.93;100.00
74905;BME280;63465;50.862;6.220;2024-01-15T06:27:45;98545.06;;;0.93;100.00
74905;BME280;63465;50.862;6.220;2024-01-15T06:30:11;98554.31;;;0.98;100.00
74905;BME280;63465;50.862;6.220;2024-01-15T06:32:37;98556.06;;;1.14;100.00
74905;BME280;63465;50.862;6.220;2024-01-15T06:35:02;98555.50;;;1.25;100.00
74905;BME280;63465;50.862;6.220;2024-01-15T06:37:27;98568.25;;;1.28;100.00
74905;BME280;63465;50.862;6.220;2024-01-15T06:39:52;98568.09;;;1.31;100.00
74905;BME280;63465;50.862;6.220;2024-01-15T06:42:18;98566.03;;;1.38;100.00
74905;BME280;63465;50.862;6.220;2024-01-15T06:44:43;98570.09;;;1.26;100.00
74905;BME280;63465;50.862;6.220;2024-01-15T06:47:09;98562.59;;;1.04;100.00
74905;BME280;63465;50.862;6.220;2024-01-15T06:49:34;98563.41;;;1.22;100.00
74905;BME280;63465;50.862;6.220;2024-01-15T06:51:59;98558.25;;;1.22;100.00
74905;BME280;63465;50.862;6.220;2024-01-15T06:54:24;98557.41;;;1.21;100.00
74905;BME280;63465;50.862;6.220;2024-01-15T06:56:51;98551.34;;;1.05;100.00
74905;BME280;63465;50.862;6.220;2024-01-15T06:59:16;98554.78;;;1.06;100.00
74905;BME280;63465;50.862;6.220;2024-01-15T07:01:42;98555.00;;;1.01;100.00
74905;BME280;63465;50.862;6.220;2024-01-15T07:04:07;98553.03;;;1.06;100.00
74905;BME280;63465;50.862;6.220;2024-01-15T07:06:33;98547.25;;;1.01;100.00
74905;BME280;63465;50.862;6.220;2024-01-15T07:08:58;98552.34;;;1.03;100.00
74905;BME280;63465;50.862;6.220;2024-01-15T07:11:24;98547.03;;;1.06;100.00
74905;BME280;63465;50.862;6.220;2024-01-15T07:13:49;98546.75;;;1.27;100.00
74905;BME280;63465;50.862;6.220;2024-01-15T07:16:14;98551.72;;;1.15;100.00
74905;BME280;63465;50.862;6.220;2024-01-15T07:18:40;98552.47;;;1.17;100.00
74905;BME280;63465;50.862;6.220;2024-01-15T07:21:06;98545.97;;;1.10;100.00
74905;BME280;63465;50.862;6.220;2024-01-15T07:23:31;98543.00;;;1.00;100.00
74905;BME280;63465;50.862;6.220;2024-01-15T07:25:57;98529.31;;;1.15;100.00
74905;BME280;63465;50.862;6.220;2024-01-15T07:28:22;98531.63;;;1.04;100.00
74905;BME280;63465;50.862;6.220;2024-01-15T07:30:47;98536.66;;;1.23;100.00
74905;BME280;63465;50.862;6.220;2024-01-15T07:33:13;98543.16;;;1.14;100.00
74905;BME280;63465;50.862;6.220;2024-01-15T07:35:38;98536.31;;;1.13;100.00
74905;BME280;63465;50.862;6.220;2024-01-15T07:38:03;98541.19;;;1.02;100.00
74905;BME280;63465;50.862;6.220;2024-01-15T07:40:29;98535.03;;;1.05;100.00
74905;BME280;63465;50.862;6.220;2024-01-15T07:42:54;98539.28;;;1.06;100.00
74905;BME280;63465;50.862;6.220;2024-01-15T07:45:19;98538.28;;;1.08;100.00
74905;BME280;63465;50.862;6.220;2024-01-15T07:47:44;98537.09;;;1.31;100.00
74905;BME280;63465;50.862;6.220;2024-01-15T07:50:10;98545.56;;;1.17;100.00
74905;BME280;63465;50.862;6.220;2024-01-15T07:52:35;98551.13;;;1.10;100.00
74905;BME280;63465;50.862;6.220;2024-01-15T07:55:01;98560.25;;;1.00;100.00
74905;BME280;63465;50.862;6.220;2024-01-15T07:57:28;98549.09;;;0.99;100.00
74905;BME280;63465;50.862;6.220;2024-01-15T07:59:54;98560.31;;;1.15;100.00
74905;BME280;63465;50.862;6.220;2024-01-15T08:02:19;98549.91;;;1.17;100.00
74905;BME280;63465;50.862;6.220;2024-01-15T08:04:44;98550.13;;;1.12;100.00
74905;BME280;63465;50.862;6.220;2024-01-15T08:07:11;98554.00;;;1.21;100.00
74905;BME280;63465;50.862;6.220;2024-01-15T08:09:36;98544.53;;;1.04;100.00
74905;BME280;63465;50.862;6.220;2024-01-15T08:12:01;98537.94;;;0.99;100.00
74905;BME280;63465;50.862;6.220;2024-01-15T08:14:27;98543.47;;;0.91;100.00
74905;BME280;63465;50.862;6.220;2024-01-15T08:16:52;98541.28;;;0.83;100.00
74905;BME280;63465;50.862;6.220;2024-01-15T08:19:17;98544.84;;;0.81;100.00
74905;BME280;63465;50.862;6.220;2024-01-15T08:21:45;98544.53;;;0.87;100.00
74905;BME280;63465;50.862;6.220;2024-01-15T08:24:10;98543.63;;;1.05;100.00
74905;BME280;63465;50.862;6.220;2024-01-15T08:26:35;98546.00;;;0.75;100.00
74905;BME280;63465;50.862;6.220;2024-01-15T08:29:00;98549.91;;;0.30;100.00
74905;BME280;63465;50.862;6.220;2024-01-15T08:31:26;98557.66;;;0.12;100.00
74905;BME280;63465;50.862;6.220;2024-01-15T08:33:52;98549.66;;;0.18;100.00
74905;BME280;63465;50.862;6.220;2024-01-15T08:36:18;98550.63;;;0.15;100.00
74905;BME280;63465;50.862;6.220;2024-01-15T08:38:44;98548.75;;;0.19;100.00
74905;BME280;63465;50.862;6.220;2024-01-15T08:41:09;98550.59;;;0.34;100.00
74905;BME280;63465;50.862;6.220;2024-01-15T08:43:35;98556.44;;;0.38;100.00
74905;BME280;63465;50.862;6.220;2024-01-15T08:46:00;98563.16;;;0.23;100.00
74905;BME280;63465;50.862;6.220;2024-01-15T08:48:26;98562.50;;;0.37;100.00
74905;BME280;63465;50.862;6.220;2024-01-15T08:50:53;98561.97;;;0.30;100.00
74905;BME280;63465;50.862;6.220;2024-01-15T08:53:18;98564.44;;;0.14;100.00
74905;BME280;63465;50.862;6.220;2024-01-15T08:55:43;98577.72;;;0.24;100.00
74905;BME280;63465;50.862;6.220;2024-01-15T08:58:09;98576.94;;;0.22;100.00
74905;BME280;63465;50.862;6.220;2024-01-15T09:00:35;98586.78;;;0.14;100.00
74905;BME280;63465;50.862;6.220;2024-01-15T09:03:00;98583.66;;;0.07;100.00
74905;BME280;63465;50.862;6.220;2024-01-15T09:05:25;98580.94;;;0.10;100.00
74905;BME280;63465;50.862;6.220;2024-01-15T09:07:51;98578.97;;;0.15;100.00
74905;BME280;63465;50.862;6.220;2024-01-15T09:10:17;98587.13;;;0.25;100.00
74905;BME280;63465;50.862;6.220;2024-01-15T09:12:43;98587.75;;;0.30;100.00
74905;BME280;63465;50.862;6.220;2024-01-15T09:15:08;98602.50;;;0.26;100.00
74905;BME280;63465;50.862;6.220;2024-01-15T09:17:34;98607.06;;;0.21;100.00
74905;BME280;63465;50.862;6.220;2024-01-15T09:19:59;98603.59;;;0.40;100.00
74905;BME280;63465;50.862;6.220;2024-01-15T09:22:25;98610.81;;;0.33;100.00
74905;BME280;63465;50.862;6.220;2024-01-15T09:24:50;98605.34;;;0.39;100.00
74905;BME280;63465;50.862;6.220;2024-01-15T09:27:16;98603.41;;;0.25;100.00
74905;BME280;63465;50.862;6.220;2024-01-15T09:29:41;98606.91;;;0.24;100.00
74905;BME280;63465;50.862;6.220;2024-01-15T09:32:08;98605.16;;;0.25;100.00
74905;BME280;63465;50.862;6.220;2024-01-15T09:34:34;98609.78;;;0.18;100.00
74905;BME280;63465;50.862;6.220;2024-01-15T09:36:59;98609.16;;;0.13;100.00
74905;BME280;63465;50.862;6.220;2024-01-15T09:39:25;98608.72;;;0.22;100.00
74905;BME280;63465;50.862;6.220;2024-01-15T09:41:51;98609.00;;;0.16;100.00
74905;BME280;63465;50.862;6.220;2024-01-15T09:44:17;98612.97;;;0.05;100.00
74905;BME280;63465;50.862;6.220;2024-01-15T09:46:42;98611.72;;;0.13;100.00
74905;BME280;63465;50.862;6.220;2024-01-15T09:49:10;98615.28;;;0.11;100.00
74905;BME280;63465;50.862;6.220;2024-01-15T09:51:35;98612.78;;;0.09;100.00
74905;BME280;63465;50.862;6.220;2024-01-15T09:54:02;98607.81;;;0.05;100.00
74905;BME280;63465;50.862;6.220;2024-01-15T09:56:27;98604.41;;;0.23;100.00
74905;BME280;63465;50.862;6.220;2024-01-15T09:58:52;98615.22;;;0.12;100.00
74905;BME280;63465;50.862;6.220;2024-01-15T10:01:20;98611.66;;;0.15;100.00
74905;BME280;63465;50.862;6.220;2024-01-15T10:03:46;98618.22;;;0.03;100.00
74905;BME280;63465;50.862;6.220;2024-01-15T10:06:15;98614.28;;;0.32;100.00
74905;BME280;63465;50.862;6.220;2024-01-15T10:08:43;98610.81;;;0.14;100.00
74905;BME280;63465;50.862;6.220;2024-01-15T10:11:12;98606.50;;;0.15;100.00
74905;BME280;63465;50.862;6.220;2024-01-15T10:13:37;98609.63;;;0.21;100.00
74905;BME280;63465;50.862;6.220;2024-01-15T10:16:04;98602.88;;;0.00;100.00
74905;BME280;63465;50.862;6.220;2024-01-15T10:18:29;98606.00;;;-0.12;100.00
74905;BME280;63465;50.862;6.220;2024-01-15T10:20:56;98622.53;;;0.03;100.00
74905;BME280;63465;50.862;6.220;2024-01-15T10:23:23;98617.72;;;0.14;100.00
74905;BME280;63465;50.862;6.220;2024-01-15T10:25:48;98616.38;;;0.24;100.00
74905;BME280;63465;50.862;6.220;2024-01-15T10:28:13;98614.22;;;0.15;100.00
74905;BME280;63465;50.862;6.220;2024-01-15T10:30:39;98606.84;;;0.07;100.00
74905;BME280;63465;50.862;6.220;2024-01-15T10:33:04;98602.69;;;0.05;100.00
74905;BME280;63465;50.862;6.220;2024-01-15T10:35:31;98598.34;;;0.05;100.00
74905;BME280;63465;50.862;6.220;2024-01-15T10:37:57;98596.75;;;0.03;100.00
74905;BME280;63465;50.862;6.220;2024-01-15T10:40:23;98593.03;;;0.27;100.00
74905;BME280;63465;50.862;6.220;2024-01-15T10:42:48;98610.81;;;0.33;100.00
74905;BME280;63465;50.862;6.220;2024-01-15T10:45:14;98608.41;;;0.47;100.00
74905;BME280;63465;50.862;6.220;2024-01-15T10:47:40;98612.13;;;0.59;100.00
74905;BME280;63465;50.862;6.220;2024-01-15T10:50:06;98599.56;;;0.70;100.00
74905;BME280;63465;50.862;6.220;2024-01-15T10:52:34;98605.47;;;0.55;100.00
74905;BME280;63465;50.862;6.220;2024-01-15T10:55:00;98603.19;;;0.66;100.00
74905;BME280;63465;50.862;6.220;2024-01-15T10:57:26;98602.84;;;0.91;100.00
74905;BME280;63465;50.862;6.220;2024-01-15T10:59:52;98599.19;;;0.95;100.00
74905;BME280;63465;50.862;6.220;2024-01-15T11:02:18;98602.84;;;0.91;100.00
74905;BME280;63465;50.862;6.220;2024-01-15T11:04:43;98606.69;;;0.82;100.00
74905;BME280;63465;50.862;6.220;2024-01-15T11:07:10;98597.75;;;0.89;100.00
74905;BME280;63465;50.862;6.220;2024-01-15T11:09:36;98603.06;;;0.86;100.00
74905;BME280;63465;50.862;6.220;2024-01-15T11:12:12;98596.75;;;0.75;100.00
74905;BME280;63465;50.862;6.220;2024-01-15T11:14:47;98601.59;;;0.63;100.00
74905;BME280;63465;50.862;6.220;2024-01-15T11:17:14;98608.53;;;0.80;100.00
74905;BME280;63465;50.862;6.220;2024-01-15T11:19:49;98616.66;;;0.90;100.00
74905;BME280;63465;50.862;6.220;2024-01-15T11:24:55;98601.31;;;1.21;100.00
74905;BME280;63465;50.862;6.220;2024-01-15T11:27:45;98606.06;;;1.29;100.00
74905;BME280;63465;50.862;6.220;2024-01-15T11:30:17;98601.31;;;1.21;100.00
74905;BME280;63465;50.862;6.220;2024-01-15T11:32:43;98610.81;;;1.04;100.00
74905;BME280;63465;50.862;6.220;2024-01-15T11:35:09;98616.94;;;1.01;100.00
74905;BME280;63465;50.862;6.220;2024-01-15T11:40:43;98622.88;;;0.86;100.00
74905;BME280;63465;50.862;6.220;2024-01-15T11:43:09;98624.22;;;0.76;100.00
74905;BME280;63465;50.862;6.220;2024-01-15T11:45:34;98614.75;;;0.76;100.00
74905;BME280;63465;50.862;6.220;2024-01-15T11:48:10;98615.97;;;0.86;100.00
74905;BME280;63465;50.862;6.220;2024-01-15T11:50:42;98607.22;;;1.06;100.00
74905;BME280;63465;50.862;6.220;2024-01-15T11:53:21;98614.91;;;1.08;100.00
74905;BME280;63465;50.862;6.220;2024-01-15T11:55:46;98600.06;;;1.94;100.00
74905;BME280;63465;50.862;6.220;2024-01-15T11:58:13;98595.38;;;4.36;100.00
74905;BME280;63465;50.862;6.220;2024-01-15T12:00:47;98591.84;;;5.04;100.00
74905;BME280;63465;50.862;6.220;2024-01-15T12:03:14;98583.56;;;5.24;100.00
74905;BME280;63465;50.862;6.220;2024-01-15T12:05:40;98594.72;;;1.98;100.00
74905;BME280;63465;50.862;6.220;2024-01-15T12:08:08;98598.72;;;2.19;100.00
74905;BME280;63465;50.862;6.220;2024-01-15T12:10:37;98608.25;;;1.37;100.00
74905;BME280;63465;50.862;6.220;2024-01-15T12:13:10;98598.53;;;1.75;100.00
74905;BME280;63465;50.862;6.220;2024-01-15T12:15:36;98602.69;;;1.11;100.00
74905;BME280;63465;50.862;6.220;2024-01-15T12:18:02;98593.28;;;1.43;100.00
74905;BME280;63465;50.862;6.220;2024-01-15T12:20:31;98593.88;;;1.15;100.00
74905;BME280;63465;50.862;6.220;2024-01-15T12:22:57;98594.94;;;1.11;100.00
74905;BME280;63465;50.862;6.220;2024-01-15T12:25:23;98592.19;;;1.14;100.00
74905;BME280;63465;50.862;6.220;2024-01-15T12:27:49;98595.25;;;1.05;100.00
74905;BME280;63465;50.862;6.220;2024-01-15T12:30:15;98610.03;;;1.02;100.00
74905;BME280;63465;50.862;6.220;2024-01-15T12:32:41;98606.16;;;0.58;100.00
74905;BME280;63465;50.862;6.220;2024-01-15T12:35:10;98624.88;;;0.62;100.00
74905;BME280;63465;50.862;6.220;2024-01-15T12:37:37;98637.63;;;0.65;100.00
74905;BME280;63465;50.862;6.220;2024-01-15T12:40:03;98637.72;;;0.63;100.00
74905;BME280;63465;50.862;6.220;2024-01-15T12:42:31;98645.56;;;0.79;100.00
74905;BME280;63465;50.862;6.220;2024-01-15T12:44:57;98637.41;;;0.70;100.00
74905;BME280;63465;50.862;6.220;2024-01-15T12:47:22;98634.00;;;0.69;100.00
74905;BME280;63465;50.862;6.220;2024-01-15T12:49:48;98632.34;;;0.85;100.00
74905;BME280;63465;50.862;6.220;2024-01-15T12:52:15;98643.81;;;0.80;100.00
74905;BME280;63465;50.862;6.220;2024-01-15T12:54:41;98652.59;;;0.76;100.00
74905;BME280;63465;50.862;6.220;2024-01-15T12:57:06;98645.53;;;0.62;100.00
74905;BME280;63465;50.862;6.220;2024-01-15T12:59:31;98647.13;;;0.64;100.00